Potomac, IL

3:19 PM CDT on September 22, 2014 (GMT -0500)
Univ Of Illinois-Willard | Change Station
CLOSE
Current Station
Airport
Location: Champaign,
Elevation: 755 ft
Nearby Weather Stations

Elev 755 ft 40.04 °N, 88.28 °W | Updated 26 minutes ago

Clear
Clear
67 °F
Feels Like 67 °F
N
0
Wind Variable Wind from North

Today
High -- | Low -- °F
--% Chance of Precip.
Yesterday
High -- | Low -- °F
Precip. -- in
6:38 AM 6:48 PM
Waning Crescent, 2% visible
Pressure 30.26 in
Visibility 10.0 miles
Clouds Clear
Dew Point 43 °F
Humidity 42%
Rainfall 0.00 in
Snow Depth Not available.
UV 5 out of 12
Pollen 4.70 out of 12
Air Quality Not available.
Flu Activity Not available.
METAR KCMI 221953Z 00000KT 10SM CLR 19/06 A3026 RMK AO2 SLP246 T01940061

More Conditions Fewer Conditions

Pressure 30.26 in
Visibility 10.0 miles
Clouds Clear
Dew Point 43 °F
Humidity 42%
Rainfall 0.00 in
Snow Depth Not available.
UV 5 out of 12
Pollen 4.70 out of 12
Air Quality Not available.
Flu Activity Not available.
METAR KCMI 221953Z 00000KT 10SM CLR 19/06 A3026 RMK AO2 SLP246 T01940061

More Conditions Fewer Conditions

10-Day Weather Forecast

Almanac

Astronomy

Sep. 22, 2014 Rise Set
Actual Time 6:38 AM CDT 6:48 PM CDT
Civil Twilight 6:11 AM CDT 7:15 PM CDT
Nautical Twilight 5:39 AM CDT 7:47 PM CDT
Astronomical Twilight 5:07 AM CDT 8:19 PM CDT
Moon 5:07 AM CDT 5:55 PM CDT
Length of Visible Light 13h 03m
Length of Day
12h 09m
Tomorrow will be 2m 38s shorter.
Waning Crescent, 2% of the Moon is Illuminated
Today
Waning Crescent
Sep 24
New
Oct 1
First Quarter
Oct 8
Full
Oct 15
Last Quarter

Today's Extremes

State Highs State Lows

Community

WunderPhotos

Upload Photos

1,755,519 photos uploaded!

WunderBlogs® & News

Nearby

Snow Depth

Station Depth Elevation
No new snow has been reported.

Earthquake Activity

City Distance Mag. Time & Date
No recent earthquake activity has been reported nearby.
Minimum magnitude displayed is 2.5.

Coastal Water Temperatures

Place Temperature
No Stations Reporting

Nearby Weather Stations